Time;durP1;ratioP1;P1;durP2;ratioP2;P2;SDS_P1;SDS_P2;PMS_P1;PMS_P2;Temp;Humidity;BMP_temperature;BMP_pressure;BME280_temperature;BME280_humidity;BME280_pressure;Samples;Min_cycle;Max_cycle;Signal;HPM_P1;HPM_P2
2021/10/28 00:12:12;;;;;;;50.35;27.42;;;;;;;3.09;73.11;101133.66;2203787;79;21010;-80
2021/10/28 00:12:13;;;;;;;42.67;24.12;;;;;;;3.08;73.35;101128.53;2209509;79;21498;-80
2021/10/28 00:15:26;;;;;;;52.03;27.77;;;;;;;2.98;72.90;101133.47;2207223;79;21025;-79
2021/10/28 00:18:26;;;;;;;48.73;25.82;;;;;;;2.91;72.82;101132.17;2203971;79;21037;-80
2021/10/28 00:21:21;;;;;;;44.55;27.02;;;;;;;2.84;72.65;101140.85;2208553;79;22048;-80
2021/10/28 00:24:23;;;;;;;44.10;24.77;;;;;;;2.85;73.26;101136.00;2211049;79;20993;-79
2021/10/28 00:27:25;;;;;;;40.05;23.65;;;;;;;2.86;73.12;101132.91;2187860;80;21027;-79
2021/10/28 00:30:29;;;;;;;73.30;28.57;;;;;;;2.85;73.11;101131.23;2183782;80;21009;-80
2021/10/28 00:33:33;;;;;;;51.48;26.52;;;;;;;2.79;73.21;101136.82;2185485;80;21026;-79
2021/10/28 00:36:36;;;;;;;55.65;26.90;;;;;;;2.69;73.22;101133.45;2186954;80;21465;-79
2021/10/28 00:39:39;;;;;;;50.80;26.10;;;;;;;2.67;73.10;101140.55;2201763;79;21006;-79
2021/10/28 00:42:41;;;;;;;57.58;29.32;;;;;;;2.65;72.90;101135.05;2194887;79;21014;-79
2021/10/28 00:45:42;;;;;;;48.87;27.07;;;;;;;2.59;73.29;101134.08;2199570;79;21050;-79
2021/10/28 00:48:46;;;;;;;48.30;27.02;;;;;;;2.54;73.31;101134.37;2190409;80;20973;-79
2021/10/28 00:51:48;;;;;;;47.90;27.48;;;;;;;2.54;73.14;101127.81;2170832;80;21002;-80
2021/10/28 00:54:50;;;;;;;49.48;26.02;;;;;;;2.57;73.21;101129.42;2198859;80;22319;-80
2021/10/28 00:57:51;;;;;;;44.50;25.55;;;;;;;2.50;73.46;101127.60;2202637;80;20971;-80
2021/10/28 01:00:55;;;;;;;43.45;24.60;;;;;;;2.49;73.64;101122.00;2209912;79;21535;-80
2021/10/28 01:03:57;;;;;;;43.42;24.50;;;;;;;2.46;73.77;101123.49;2206891;79;21092;-79
2021/10/28 01:06:59;;;;;;;46.35;25.70;;;;;;;2.47;73.64;101129.94;2209600;79;21009;-79
2021/10/28 01:10:01;;;;;;;47.40;27.48;;;;;;;2.46;73.52;101123.49;2207622;79;21077;-79
2021/10/28 01:13:03;;;;;;;48.83;27.80;;;;;;;2.49;73.65;101118.07;2212639;79;21552;-79
2021/10/28 01:16:06;;;;;;;53.83;27.85;;;;;;;2.48;73.38;101117.70;2209080;79;21009;-80
2021/10/28 01:19:08;;;;;;;65.70;27.02;;;;;;;2.48;73.41;101125.56;2212300;79;21044;-79
2021/10/28 01:22:10;;;;;;;53.83;29.12;;;;;;;2.46;73.79;101115.63;2211593;79;21040;-80
2021/10/28 01:25:12;;;;;;;53.68;27.67;;;;;;;2.41;73.43;101119.83;2208356;79;21054;-81
2021/10/28 01:28:16;;;;;;;51.20;26.68;;;;;;;2.35;73.44;101115.42;2187205;80;21003;-79
2021/10/28 01:31:22;;;;;;;45.15;25.68;;;;;;;2.36;73.97;101110.55;2188295;80;21018;-79
2021/10/28 01:34:23;;;;;;;54.33;29.18;;;;;;;2.40;74.15;101112.07;2136058;81;21659;-79
2021/10/28 01:37:25;;;;;;;71.67;25.48;;;;;;;2.36;73.44;101110.55;2168200;81;20983;-79
2021/10/28 01:40:26;;;;;;;47.25;26.45;;;;;;;2.34;73.73;101115.89;2190988;80;21007;-79
2021/10/28 01:43:30;;;;;;;56.73;29.60;;;;;;;2.18;73.77;101109.38;2138258;81;21036;-79
2021/10/28 01:46:31;;;;;;;56.33;30.05;;;;;;;2.18;73.67;101110.69;2142568;81;21614;-79
2021/10/28 01:49:33;;;;;;;54.48;29.15;;;;;;;2.20;73.98;101111.92;2142653;81;21038;-80
2021/10/28 01:52:38;;;;;;;50.25;27.37;;;;;;;2.17;73.93;101114.25;2143707;81;21052;-79
2021/10/28 01:55:38;;;;;;;51.45;28.50;;;;;;;2.17;74.12;101110.80;2141778;81;21092;-78
2021/10/28 01:58:40;;;;;;;50.25;27.05;;;;;;;2.12;73.97;101112.36;2155660;81;21079;-79
2021/10/28 02:01:41;;;;;;;50.03;27.02;;;;;;;2.15;74.27;101112.18;2160609;81;20993;-79
2021/10/28 02:04:43;;;;;;;53.05;27.27;;;;;;;2.17;74.33;101112.94;2158798;81;21009;-79
2021/10/28 02:07:45;;;;;;;58.33;29.12;;;;;;;2.15;74.33;101114.80;2164448;81;21068;-79
2021/10/28 02:10:47;;;;;;;50.48;26.70;;;;;;;2.13;74.15;101120.58;2160720;81;21561;-79
2021/10/28 02:13:48;;;;;;;55.35;28.00;;;;;;;2.10;74.01;101111.59;2154511;81;21025;-79
2021/10/28 02:16:51;;;;;;;49.35;25.82;;;;;;;2.06;73.90;101117.11;2157726;81;21015;-80
2021/10/28 02:19:53;;;;;;;49.83;25.80;;;;;;;2.03;74.03;101112.89;2157908;81;20985;-80
2021/10/28 02:22:54;;;;;;;45.55;26.75;;;;;;;2.05;73.77;101113.62;2185157;80;20977;-79
2021/10/28 02:25:56;;;;;;;49.08;26.97;;;;;;;1.95;73.81;101112.48;2179483;80;21072;-79
2021/10/28 02:28:57;;;;;;;47.90;26.73;;;;;;;1.90;74.00;101110.58;2182791;80;20969;-79
2021/10/28 02:31:59;;;;;;;42.93;26.52;;;;;;;1.73;73.97;101112.37;2183776;80;20958;-80
2021/10/28 02:35:04;;;;;;;45.63;24.07;;;;;;;1.70;74.31;101106.47;2148822;81;21053;-80
2021/10/28 02:38:06;;;;;;;46.77;25.57;;;;;;;1.70;74.15;101112.55;2143534;81;21072;-78
2021/10/28 02:41:08;;;;;;;51.33;26.70;;;;;;;1.71;73.92;101112.08;2146437;81;20965;-79
2021/10/28 02:44:11;;;;;;;48.90;26.77;;;;;;;1.76;73.87;101111.36;2144391;80;21162;-79
2021/10/28 02:47:14;;;;;;;47.90;26.48;;;;;;;1.76;73.72;101110.05;2173471;81;21014;-79
2021/10/28 02:50:16;;;;;;;52.53;29.98;;;;;;;1.68;73.56;101105.23;2191202;80;21046;-79
2021/10/28 02:53:19;;;;;;;49.83;28.05;;;;;;;1.64;74.04;101106.34;2188471;80;21050;-79
2021/10/28 02:56:21;;;;;;;49.77;26.48;;;;;;;1.54;74.00;101109.08;2181234;80;21015;-79
2021/10/28 02:59:23;;;;;;;50.52;28.05;;;;;;;1.50;74.00;101109.73;2187729;80;21458;-80
2021/10/28 03:02:24;;;;;;;50.52;26.45;;;;;;;1.50;73.93;101111.50;2184766;80;21048;-80
2021/10/28 03:05:26;;;;;;;47.65;25.10;;;;;;;1.47;74.16;101104.66;2189221;80;21014;-80
2021/10/28 03:08:29;;;;;;;42.20;24.00;;;;;;;1.47;74.24;101105.14;2189014;80;20974;-79
2021/10/28 03:11:30;;;;;;;53.80;28.45;;;;;;;1.46;74.11;101100.81;2183983;80;21017;-79
2021/10/28 03:17:43;;;;;;;47.62;27.40;;;;;;;1.41;74.40;101098.47;2189589;80;21042;-78
2021/10/28 03:27:16;;;;;;;39.58;24.30;;;;;;;1.36;73.68;101108.33;2182473;80;21395;-80
2021/10/28 03:30:18;;;;;;;46.18;25.12;;;;;;;1.25;73.89;101106.30;2191589;80;20955;-80
2021/10/28 03:33:22;;;;;;;48.20;27.25;;;;;;;1.22;74.28;101102.54;2188163;80;21427;-80
2021/10/28 03:36:38;;;;;;;55.63;29.90;;;;;;;1.26;74.40;101104.52;2188450;80;21072;-79
2021/10/28 04:06:04;;;;;;;50.55;27.95;;;;;;;1.04;74.46;101117.88;2188161;80;20943;-80
2021/10/28 04:21:49;;;;;;;47.15;26.97;;;;;;;0.87;74.71;101111.80;2186355;80;21044;-80
2021/10/28 04:31:19;;;;;;;64.70;32.90;;;;;;;0.88;75.05;101115.25;2189364;80;21038;-79
2021/10/28 04:34:21;;;;;;;53.95;28.70;;;;;;;0.83;75.23;101123.32;2187448;80;21029;-80
2021/10/28 04:37:22;;;;;;;50.12;26.75;;;;;;;0.85;75.14;101120.64;2192931;80;21022;-79
2021/10/28 04:40:24;;;;;;;42.98;25.50;;;;;;;0.83;75.10;101123.32;2188634;80;20993;-77
2021/10/28 04:43:26;;;;;;;44.88;24.85;;;;;;;0.81;74.84;101121.71;2190635;80;21045;-77
2021/10/28 04:46:27;;;;;;;52.17;28.90;;;;;;;0.72;74.25;101123.50;2189135;80;20991;-78
2021/10/28 04:49:29;;;;;;;59.45;30.50;;;;;;;0.73;74.75;101117.34;2191679;80;21065;-78
2021/10/28 04:52:31;;;;;;;87.90;31.37;;;;;;;0.74;75.04;101118.58;2186731;80;21389;-78
2021/10/28 04:55:33;;;;;;;59.33;28.73;;;;;;;0.76;75.18;101116.74;2186997;80;21683;-78
2021/10/28 04:58:34;;;;;;;70.67;29.07;;;;;;;0.77;75.43;101115.81;2189193;80;20993;-79
2021/10/28 05:01:36;;;;;;;77.72;28.87;;;;;;;0.72;75.46;101120.42;2194315;80;21460;-79
2021/10/28 05:04:37;;;;;;;82.30;30.45;;;;;;;0.70;75.79;101109.66;2191884;80;21010;-78
2021/10/28 05:07:39;;;;;;;79.87;27.80;;;;;;;0.66;75.77;101118.13;2187368;80;21024;-78
2021/10/28 05:10:44;;;;;;;54.15;29.18;;;;;;;0.65;76.04;101112.53;2189614;80;21030;-78
2021/10/28 05:13:49;;;;;;;61.15;31.70;;;;;;;0.63;76.17;101121.73;2194191;80;21070;-80
2021/10/28 05:16:56;;;;;;;72.15;34.78;;;;;;;0.60;76.12;101119.75;2193016;80;21050;-79
2021/10/28 05:19:55;;;;;;;80.05;34.25;;;;;;;0.67;76.06;101119.80;2188444;80;21073;-78
2021/10/28 05:22:56;;;;;;;71.12;30.35;;;;;;;0.65;75.96;101119.06;2187085;80;21080;-78
2021/10/28 05:25:58;;;;;;;76.77;30.62;;;;;;;0.54;76.39;101118.30;2169742;80;21046;-79
2021/10/28 05:28:59;;;;;;;91.25;34.18;;;;;;;0.50;76.60;101118.52;2190712;80;21415;-78
2021/10/28 05:32:01;;;;;;;79.95;36.25;;;;;;;0.49;76.64;101120.77;2191303;80;21027;-78
2021/10/28 05:35:02;;;;;;;73.55;36.73;;;;;;;0.51;76.77;101120.20;2188460;80;20982;-79
2021/10/28 05:38:04;;;;;;;67.08;36.68;;;;;;;0.62;76.90;101119.19;2191543;80;21020;-78
2021/10/28 05:41:09;;;;;;;88.05;36.05;;;;;;;0.70;76.95;101122.73;2188733;80;21551;-79
2021/10/28 05:44:11;;;;;;;89.52;38.63;;;;;;;0.75;77.05;101120.26;2184327;80;21062;-79
2021/10/28 05:47:12;;;;;;;120.70;41.33;;;;;;;0.84;77.23;101111.94;2163222;81;20994;-78
2021/10/28 05:50:16;;;;;;;111.95;41.83;;;;;;;0.91;77.36;101122.09;2159298;81;21001;-79
2021/10/28 05:53:18;;;;;;;109.72;39.60;;;;;;;0.99;77.50;101122.53;2138396;82;21699;-79
2021/10/28 05:56:20;;;;;;;88.03;38.83;;;;;;;1.01;77.23;101121.50;2183344;80;20989;-78
2021/10/28 05:59:21;;;;;;;104.58;39.67;;;;;;;0.96;77.13;101122.67;2187153;80;20993;-79
2021/10/28 06:02:23;;;;;;;88.47;39.48;;;;;;;1.01;77.34;101125.89;2183933;80;21607;-79
2021/10/28 06:05:25;;;;;;;79.12;35.90;;;;;;;1.04;77.37;101117.45;2179772;80;21033;-79
2021/10/28 06:08:26;;;;;;;78.97;35.20;;;;;;;1.12;77.36;101124.86;2185786;80;20993;-78
2021/10/28 06:11:28;;;;;;;78.15;39.23;;;;;;;1.20;77.41;101120.07;2183107;80;21000;-80
2021/10/28 06:14:31;;;;;;;82.33;39.90;;;;;;;1.30;77.28;101121.27;2181340;80;21107;-77
2021/10/28 06:17:35;;;;;;;76.12;39.08;;;;;;;1.34;77.19;101128.02;2185966;80;21024;-79
2021/10/28 06:20:36;;;;;;;74.70;37.53;;;;;;;1.48;77.25;101132.50;2185571;80;21017;-77
2021/10/28 06:23:38;;;;;;;71.05;37.10;;;;;;;1.57;77.10;101129.84;2182336;80;21361;-79
2021/10/28 06:26:40;;;;;;;66.75;36.30;;;;;;;1.68;77.02;101133.18;2185973;80;21013;-78
2021/10/28 06:29:41;;;;;;;69.82;37.33;;;;;;;1.88;77.18;101133.38;2163842;81;20997;-79
2021/10/28 06:32:46;;;;;;;72.42;38.53;;;;;;;2.10;77.30;101139.56;2162786;81;21488;-79
2021/10/28 06:35:48;;;;;;;75.05;40.25;;;;;;;2.34;77.21;101136.01;2167597;81;20950;-79
2021/10/28 06:38:50;;;;;;;81.25;39.63;;;;;;;2.62;77.23;101135.23;2161154;81;21001;-78
2021/10/28 06:41:52;;;;;;;75.80;39.90;;;;;;;2.99;77.46;101129.93;2164834;81;21073;-81
2021/10/28 06:44:54;;;;;;;70.52;41.00;;;;;;;3.45;77.58;101136.73;2172160;80;21608;-80
2021/10/28 06:47:57;;;;;;;64.77;39.00;;;;;;;3.96;77.38;101129.94;2188696;80;20986;-82
2021/10/28 06:51:00;;;;;;;64.12;37.28;;;;;;;4.40;77.05;101135.38;2194707;80;21013;-82
2021/10/28 06:54:08;;;;;;;63.75;37.75;;;;;;;4.71;76.73;101137.27;2158812;81;20968;-80
2021/10/28 07:03:48;;;;;;;58.02;34.85;;;;;;;5.88;76.07;101124.63;2207371;79;21275;-79
2021/10/28 07:06:50;;;;;;;62.98;36.45;;;;;;;6.06;75.71;101125.96;2206970;79;21466;-81
2021/10/28 07:10:02;;;;;;;77.32;41.25;;;;;;;6.13;75.32;101128.14;2212575;79;20977;-78
2021/10/28 07:13:09;;;;;;;59.67;37.33;;;;;;;6.16;75.48;101128.75;2211909;79;21067;-78
2021/10/28 07:16:16;;;;;;;57.27;36.58;;;;;;;6.31;75.52;101128.56;2204578;79;21617;-79
2021/10/28 07:19:42;;;;;;;57.35;33.73;;;;;;;6.46;75.64;101124.79;2180661;80;21005;-77
2021/10/28 08:17:11;;;;;;;49.18;33.50;;;;;;;11.16;71.34;101109.48;2168898;81;20977;-81
2021/10/28 08:20:32;;;;;;;52.58;34.88;;;;;;;11.14;70.49;101100.81;2168910;81;21048;-82
2021/10/28 08:29:50;;;;;;;54.63;36.75;;;;;;;11.44;70.37;101103.68;2171162;81;21053;-81
2021/10/28 08:32:49;;;;;;;52.62;35.48;;;;;;;11.67;69.87;101087.66;2171965;81;21087;-82
2021/10/28 08:35:56;;;;;;;45.88;29.85;;;;;;;11.67;69.87;101087.66;2171212;81;20973;-82
2021/10/28 08:38:56;;;;;;;48.10;33.75;;;;;;;11.94;68.84;101092.62;2170051;81;20984;-81
2021/10/28 08:42:02;;;;;;;50.95;33.73;;;;;;;11.85;69.06;101089.48;2170637;81;20985;-81
2021/10/28 08:45:06;;;;;;;48.92;32.95;;;;;;;12.04;69.20;101081.39;2143027;81;21026;-80
2021/10/28 08:48:08;;;;;;;51.28;35.23;;;;;;;12.20;68.15;101080.70;2157549;81;21006;-81
2021/10/28 08:51:17;;;;;;;51.23;32.78;;;;;;;12.42;68.78;101076.72;2170520;81;21013;-82
2021/10/28 08:54:44;;;;;;;48.23;32.42;;;;;;;12.70;67.49;101073.41;2172682;81;21006;-81
2021/10/28 09:27:15;;;;;;;42.17;29.50;;;;;;;13.93;63.40;101050.34;2192528;80;21548;-78
2021/10/28 09:30:30;;;;;;;38.25;26.68;;;;;;;14.10;63.68;101054.67;2187006;80;21011;-81
2021/10/28 09:34:01;;;;;;;41.02;27.90;;;;;;;13.98;62.47;101050.69;2188583;80;21023;-79
2021/10/28 09:46:47;;;;;;;44.13;28.57;;;;;;;14.20;62.07;101042.01;2190978;80;21576;-79
2021/10/28 09:50:11;;;;;;;42.05;29.07;;;;;;;14.44;61.37;101045.64;2185362;80;21072;-78
2021/10/28 09:53:29;;;;;;;43.85;30.02;;;;;;;14.53;59.74;101042.01;2184035;80;21068;-80
2021/10/28 10:00:10;;;;;;;43.23;29.90;;;;;;;14.79;60.83;101035.91;2193044;80;20606;-81
2021/10/28 10:03:30;;;;;;;40.05;27.90;;;;;;;14.88;60.36;101029.21;2187457;80;21528;-81
2021/10/28 10:06:26;;;;;;;42.38;28.67;;;;;;;14.87;60.14;101027.55;2181498;80;21513;-80
2021/10/28 10:09:25;;;;;;;42.03;29.52;;;;;;;14.85;60.14;101018.88;2187634;80;21644;-82
2021/10/28 10:12:28;;;;;;;41.83;28.77;;;;;;;15.03;59.84;101020.78;2186799;80;20959;-80
2021/10/28 10:15:30;;;;;;;38.23;27.13;;;;;;;15.17;60.24;101016.03;2190996;80;21564;-81
2021/10/28 10:18:35;;;;;;;40.90;27.07;;;;;;;15.36;59.31;101008.59;2185589;80;20971;-80
2021/10/28 10:21:42;;;;;;;41.20;25.95;;;;;;;15.40;58.68;101010.75;2182848;80;20947;-81
2021/10/28 10:28:45;;;;;;;39.13;26.68;;;;;;;15.50;58.66;100995.80;2187161;80;21005;-79
2021/10/28 12:46:33;;;;;;;37.53;22.52;;;;;;;15.12;55.88;100872.75;2173895;80;21049;-81
2021/10/28 12:53:09;;;;;;;33.18;23.42;;;;;;;15.12;56.48;100865.21;2186132;80;20990;-78
2021/10/28 12:56:26;;;;;;;34.80;23.62;;;;;;;15.09;56.64;100858.41;2180637;80;21359;-78
2021/10/28 13:52:06;;;;;;;37.70;24.65;;;;;;;14.42;58.76;100843.42;2168763;80;20998;-79
2021/10/28 14:27:25;;;;;;;31.52;17.70;;;;;;;14.06;58.68;100830.54;2193541;80;21548;-78
2021/10/28 15:36:09;;;;;;;31.90;18.10;;;;;;;12.60;60.60;100775.00;2186147;80;21026;-80
2021/10/28 15:39:33;;;;;;;32.67;20.27;;;;;;;12.52;60.70;100771.81;2189215;80;21710;-82
2021/10/28 16:22:03;;;;;;;42.30;24.80;;;;;;;10.46;65.62;100759.58;2186634;80;21001;-81
2021/10/28 16:25:06;;;;;;;44.30;24.30;;;;;;;10.42;65.67;100754.73;2187389;80;21014;-77
2021/10/28 16:28:08;;;;;;;39.98;25.45;;;;;;;10.34;65.86;100754.65;2188158;80;21000;-83
2021/10/28 16:31:10;;;;;;;42.05;25.68;;;;;;;10.24;66.13;100757.31;2188209;80;20998;-82
2021/10/28 16:34:12;;;;;;;47.20;25.27;;;;;;;10.12;66.24;100755.36;2189853;80;21301;-82
2021/10/28 16:37:14;;;;;;;40.08;23.50;;;;;;;10.02;66.39;100754.56;2184958;80;20971;-80
2021/10/28 16:40:16;;;;;;;41.30;24.75;;;;;;;9.99;66.55;100748.23;2190303;80;21017;-81
2021/10/28 16:43:18;;;;;;;41.15;22.65;;;;;;;9.94;66.66;100750.49;2192628;80;21034;-84
2021/10/28 16:46:20;;;;;;;38.10;19.87;;;;;;;9.91;66.91;100745.02;2193306;80;21021;-81
2021/10/28 16:49:22;;;;;;;33.02;21.42;;;;;;;9.92;66.45;100740.55;2190337;80;21041;-84
2021/10/28 16:52:24;;;;;;;34.10;19.75;;;;;;;9.88;66.53;100740.84;2190823;80;21028;-85
2021/10/28 16:55:26;;;;;;;32.42;19.95;;;;;;;9.88;66.41;100738.66;2188043;80;21005;-79
2021/10/28 16:58:30;;;;;;;35.17;19.25;;;;;;;9.87;66.29;100743.62;2186777;80;21009;-79
2021/10/28 17:01:31;;;;;;;32.17;19.52;;;;;;;9.84;66.12;100742.10;2173856;80;21582;-79
2021/10/28 17:04:33;;;;;;;32.40;19.60;;;;;;;9.80;66.02;100743.39;2172830;80;21598;-81
2021/10/28 17:07:35;;;;;;;35.17;19.10;;;;;;;9.72;65.88;100745.94;2168988;81;20986;-80
2021/10/28 17:10:37;;;;;;;23.42;14.60;;;;;;;9.67;65.83;100736.25;2173101;81;21044;-80
2021/10/28 17:13:43;;;;;;;24.12;14.60;;;;;;;9.68;65.77;100743.22;2136512;82;21544;-80
2021/10/28 17:16:47;;;;;;;27.62;14.28;;;;;;;9.70;65.73;100731.98;2183234;80;20986;-80
2021/10/28 17:19:49;;;;;;;24.80;14.75;;;;;;;9.74;65.50;100742.66;2176255;81;20993;-80
2021/10/28 17:22:53;;;;;;;24.10;13.85;;;;;;;9.74;65.35;100736.03;2174097;81;20997;-80
2021/10/28 17:26:01;;;;;;;23.02;14.65;;;;;;;9.74;65.26;100738.69;2190968;80;21547;-80
2021/10/28 17:29:00;;;;;;;25.43;13.60;;;;;;;9.72;65.12;100735.33;2199175;80;21081;-80
2021/10/28 17:32:03;;;;;;;25.55;15.25;;;;;;;9.69;65.03;100732.98;2190922;80;20982;-80
2021/10/28 17:35:06;;;;;;;27.65;15.38;;;;;;;9.68;64.96;100732.61;2188379;80;21006;-81
2021/10/28 17:38:08;;;;;;;23.67;14.18;;;;;;;9.68;64.84;100729.97;2194467;80;21488;-84
2021/10/28 17:41:10;;;;;;;24.70;14.83;;;;;;;9.68;64.70;100735.27;2192242;80;21531;-81
2021/10/28 17:44:12;;;;;;;26.27;14.33;;;;;;;9.68;64.57;100731.29;2190663;79;21448;-82
2021/10/28 17:47:15;;;;;;;24.75;13.65;;;;;;;9.65;64.42;100730.26;2211685;79;21004;-80
2021/10/28 17:50:17;;;;;;;24.70;14.35;;;;;;;9.63;64.36;100729.09;2188535;80;21037;-79
2021/10/28 17:53:20;;;;;;;29.18;14.87;;;;;;;9.62;64.28;100729.23;2184189;80;21017;-81
2021/10/28 17:56:21;;;;;;;25.23;15.08;;;;;;;9.59;64.23;100730.34;2199992;79;20951;-80
2021/10/28 17:59:25;;;;;;;26.70;14.05;;;;;;;9.56;64.21;100734.62;2193436;80;21022;-83
2021/10/28 18:02:26;;;;;;;22.55;13.93;;;;;;;9.53;64.20;100730.11;2203225;79;21475;-79
2021/10/28 18:05:28;;;;;;;24.23;14.38;;;;;;;9.47;64.27;100729.37;2202980;80;20978;-79
2021/10/28 18:08:31;;;;;;;27.48;15.30;;;;;;;9.39;64.29;100728.27;2202362;79;21025;-82
2021/10/28 18:11:33;;;;;;;23.07;15.10;;;;;;;9.32;64.37;100720.56;2200068;80;21085;-79
2021/10/28 18:14:35;;;;;;;24.07;15.30;;;;;;;9.25;64.44;100722.10;2204728;79;21022;-81
2021/10/28 18:17:37;;;;;;;25.75;15.25;;;;;;;9.20;64.49;100719.04;2198747;80;20993;-78
2021/10/28 18:20:40;;;;;;;24.10;14.33;;;;;;;9.12;64.49;100723.75;2212024;79;20978;-80
2021/10/28 18:23:48;;;;;;;24.77;14.50;;;;;;;9.07;64.56;100722.02;2219480;79;20997;-80
2021/10/28 18:26:45;;;;;;;22.13;13.72;;;;;;;9.04;64.59;100718.79;2221629;78;21477;-78
2021/10/28 18:29:47;;;;;;;29.12;15.38;;;;;;;9.03;64.58;100721.11;2211284;79;21033;-80
2021/10/28 18:32:51;;;;;;;46.90;22.10;;;;;;;9.01;64.64;100719.08;2211809;79;20953;-81
2021/10/28 18:35:53;;;;;;;32.93;18.42;;;;;;;8.98;64.64;100721.05;2218262;79;21005;-80
2021/10/28 18:38:55;;;;;;;26.77;16.02;;;;;;;8.98;64.57;100718.41;2212506;79;21487;-81
2021/10/28 18:41:58;;;;;;;26.95;15.95;;;;;;;8.95;64.54;100716.05;2212119;79;21030;-82
2021/10/28 18:45:00;;;;;;;27.85;16.77;;;;;;;8.90;64.50;100711.66;2213509;79;21059;-80
2021/10/28 18:48:05;;;;;;;26.00;16.82;;;;;;;8.86;64.49;100711.58;2203013;79;21047;-80
2021/10/28 18:51:06;;;;;;;25.05;15.45;;;;;;;8.81;64.54;100713.81;2168193;81;21044;-82
2021/10/28 18:54:10;;;;;;;25.40;17.20;;;;;;;8.74;64.59;100712.22;2168145;81;21043;-80
2021/10/28 18:57:14;;;;;;;28.02;16.65;;;;;;;8.66;64.56;100711.25;2171359;81;21050;-81
2021/10/28 19:00:17;;;;;;;29.35;16.37;;;;;;;8.59;64.54;100712.31;2167941;81;21032;-80
2021/10/28 19:03:19;;;;;;;29.07;15.30;;;;;;;8.49;64.67;100715.43;2173301;81;20981;-80
2021/10/28 19:06:22;;;;;;;32.03;16.95;;;;;;;8.41;64.74;100712.64;2168909;81;21487;-80
2021/10/28 19:09:24;;;;;;;30.40;17.37;;;;;;;8.39;64.77;100704.00;2172573;81;20997;-81
2021/10/28 19:12:27;;;;;;;27.65;16.30;;;;;;;8.30;64.84;100707.78;2171441;81;21464;-81
2021/10/28 19:15:29;;;;;;;35.20;17.75;;;;;;;8.29;64.95;100700.01;2165209;80;21004;-80
2021/10/28 19:18:31;;;;;;;31.77;18.10;;;;;;;8.27;64.93;100701.45;2122951;81;21022;-80
2021/10/28 19:21:34;;;;;;;32.53;17.48;;;;;;;8.23;64.98;100705.36;2137880;81;21094;-80
2021/10/28 19:24:36;;;;;;;33.20;19.32;;;;;;;8.16;65.03;100703.39;2140511;81;21332;-81
2021/10/28 19:27:40;;;;;;;29.15;18.20;;;;;;;8.07;65.10;100705.05;2138640;82;21013;-79
2021/10/28 19:30:55;;;;;;;27.32;16.73;;;;;;;8.03;65.19;100699.70;2132272;82;21081;-80
2021/10/28 19:33:59;;;;;;;63.23;34.40;;;;;;;7.96;65.23;100691.45;2132965;82;21052;-81
2021/10/28 19:47:40;;;;;;;55.80;26.17;;;;;;;7.52;65.62;100689.60;2136238;80;20991;-80
2021/10/28 19:50:46;;;;;;;66.75;28.07;;;;;;;7.50;65.76;100690.21;2176144;80;21465;-81
2021/10/28 19:53:48;;;;;;;43.75;21.97;;;;;;;7.44;65.76;100693.88;2171512;80;21009;-81
2021/10/28 19:56:51;;;;;;;33.67;20.88;;;;;;;7.25;66.03;100690.66;2178707;80;21521;-80
2021/10/28 20:00:06;;;;;;;32.88;19.70;;;;;;;7.17;66.33;100684.21;2172278;80;21457;-80
2021/10/28 20:06:14;;;;;;;32.10;20.10;;;;;;;7.00;66.48;100676.07;2174292;80;21022;-81
2021/10/28 20:22:01;;;;;;;41.00;21.82;;;;;;;6.66;67.00;100677.58;2201724;79;21385;-80
2021/10/28 20:25:07;;;;;;;33.88;20.10;;;;;;;6.50;67.12;100676.69;2205712;79;21480;-81
2021/10/28 20:28:10;;;;;;;44.33;25.72;;;;;;;6.40;67.27;100673.98;2199557;79;20971;-81
2021/10/28 20:31:13;;;;;;;39.63;23.10;;;;;;;6.34;67.39;100674.98;2204124;79;21405;-80
2021/10/28 20:34:26;;;;;;;35.92;21.77;;;;;;;6.17;67.36;100679.83;2208778;79;20989;-80
2021/10/28 20:37:19;;;;;;;45.10;23.40;;;;;;;6.06;67.66;100674.11;2200844;79;21008;-79
2021/10/28 20:40:21;;;;;;;43.10;24.37;;;;;;;5.94;67.49;100676.88;2205884;79;21276;-80
2021/10/28 20:43:22;;;;;;;40.08;22.17;;;;;;;5.70;67.66;100682.28;2205429;79;21009;-80
2021/10/28 20:46:26;;;;;;;41.95;22.17;;;;;;;5.62;67.64;100685.03;2207556;79;21731;-80
2021/10/28 20:49:28;;;;;;;50.38;25.62;;;;;;;5.43;68.01;100677.38;2196693;79;21022;-78
2021/10/28 20:52:30;;;;;;;45.52;23.60;;;;;;;5.30;68.31;100682.78;2184592;80;21062;-80
2021/10/28 20:55:33;;;;;;;93.55;38.92;;;;;;;5.27;68.66;100688.28;2188012;80;21124;-79
2021/10/28 20:58:34;;;;;;;38.00;21.62;;;;;;;5.16;68.78;100679.41;2161995;81;20976;-79
2021/10/28 21:01:36;;;;;;;33.58;19.32;;;;;;;4.99;68.83;100688.25;2160769;81;21510;-79
2021/10/28 21:04:38;;;;;;;34.03;19.55;;;;;;;4.82;68.96;100686.90;2163724;81;21501;-79
2021/10/28 21:07:42;;;;;;;38.73;22.13;;;;;;;4.73;68.39;100685.80;2161788;81;20996;-79
2021/10/28 21:10:43;;;;;;;29.02;19.57;;;;;;;4.70;68.83;100684.69;2181031;80;21486;-80
2021/10/28 21:13:45;;;;;;;38.90;20.17;;;;;;;4.65;69.30;100680.28;2186073;80;21405;-81
2021/10/28 21:16:46;;;;;;;29.07;16.32;;;;;;;4.55;69.38;100680.11;2184195;80;22456;-81
2021/10/28 21:19:48;;;;;;;36.50;20.05;;;;;;;4.44;68.86;100671.70;2182511;80;21568;-79
2021/10/28 21:22:50;;;;;;;32.55;18.82;;;;;;;4.39;68.99;100672.55;2151287;81;20974;-80
2021/10/28 21:25:51;;;;;;;30.85;19.77;;;;;;;4.33;69.41;100672.97;2116541;83;21028;-80
2021/10/28 21:28:54;;;;;;;31.55;20.23;;;;;;;4.32;69.64;100669.16;2165258;81;21058;-80
2021/10/28 21:31:55;;;;;;;29.52;19.02;;;;;;;4.29;69.34;100665.45;2158846;81;21019;-79
2021/10/28 21:34:57;;;;;;;39.10;21.00;;;;;;;4.24;68.95;100660.52;2162414;81;21304;-79
2021/10/28 21:37:58;;;;;;;29.55;20.00;;;;;;;4.13;69.38;100661.78;2160695;81;21611;-78
2021/10/28 21:41:01;;;;;;;39.67;23.77;;;;;;;4.01;69.70;100663.04;2177300;80;20990;-79
2021/10/28 21:44:03;;;;;;;35.83;21.80;;;;;;;3.97;69.84;100662.91;2184721;80;21080;-79
2021/10/28 21:47:06;;;;;;;38.08;20.52;;;;;;;3.89;70.42;100660.00;2186186;80;21023;-78
2021/10/28 21:50:10;;;;;;;36.45;21.02;;;;;;;3.78;70.52;100653.37;2186636;79;21022;-79
2021/10/28 21:53:14;;;;;;;34.43;20.23;;;;;;;3.76;70.50;100657.40;2196247;80;20993;-79
2021/10/28 21:56:27;;;;;;;36.68;20.82;;;;;;;3.77;70.43;100656.92;2192524;80;21081;-79
2021/10/28 22:06:03;;;;;;;40.65;24.15;;;;;;;3.63;71.34;100661.00;2190588;79;20998;-79
2021/10/28 22:25:21;;;;;;;45.50;27.07;;;;;;;3.46;71.28;100652.53;2116859;82;21029;-80
2021/10/28 22:28:23;;;;;;;45.28;25.97;;;;;;;3.47;71.73;100645.53;2150198;82;21033;-81
2021/10/28 22:31:24;;;;;;;43.23;23.40;;;;;;;3.53;71.81;100638.05;2111636;83;21271;-80
2021/10/28 22:34:26;;;;;;;43.33;26.30;;;;;;;3.56;71.56;100641.77;2114150;84;21014;-79
2021/10/28 22:37:41;;;;;;;41.30;23.70;;;;;;;3.55;71.45;100641.41;2148521;82;21462;-80
2021/10/28 22:40:34;;;;;;;41.73;24.40;;;;;;;3.52;71.53;100642.08;2149407;82;20966;-80
2021/10/28 22:43:36;;;;;;;33.18;20.80;;;;;;;3.52;71.59;100631.13;2151088;82;21397;-81
2021/10/28 22:46:37;;;;;;;33.92;21.05;;;;;;;3.53;71.72;100634.11;2149278;82;21513;-81
2021/10/28 22:49:39;;;;;;;38.30;21.20;;;;;;;3.54;71.70;100634.94;2152043;82;21537;-80
2021/10/28 22:52:43;;;;;;;32.28;19.10;;;;;;;3.52;71.79;100630.27;2141682;82;21041;-80
2021/10/28 22:55:45;;;;;;;34.08;20.45;;;;;;;3.55;71.76;100630.91;2159540;81;21317;-79
2021/10/28 22:58:53;;;;;;;42.17;21.82;;;;;;;3.62;71.91;100626.53;2106278;83;20987;-80
2021/10/28 23:02:11;;;;;;;34.23;22.10;;;;;;;3.65;71.84;100617.95;2159941;82;21061;-79
2021/10/28 23:05:21;;;;;;;36.30;20.70;;;;;;;3.73;71.86;100620.05;2107883;82;21038;-79
2021/10/28 23:14:50;;;;;;;36.53;19.02;;;;;;;3.89;71.76;100606.17;2158091;81;21070;-78
2021/10/28 23:21:01;;;;;;;31.10;17.73;;;;;;;3.93;71.75;100607.61;2104274;83;21367;-80
2021/10/28 23:24:03;;;;;;;32.28;18.17;;;;;;;3.99;71.71;100606.33;2180424;79;20988;-79
2021/10/28 23:27:05;;;;;;;27.22;17.67;;;;;;;4.04;71.76;100603.72;2179543;80;21586;-78